Time;durP1;ratioP1;P1;durP2;ratioP2;P2;SDS_P1;SDS_P2;PMS_P1;PMS_P2;Temp;Humidity;BMP_temperature;BMP_pressure;BME280_temperature;BME280_humidity;BME280_pressure;Samples;Min_cycle;Max_cycle;Signal;HPM_P1;HPM_P2
2023/03/10 00:01:22;;;;;;;1.25;0.40;;;;;;;;;;5004730;28;20038;-75
2023/03/10 00:03:48;;;;;;;4.43;1.02;;;;;;;;;;5018343;28;20044;-75
2023/03/10 00:06:15;;;;;;;0.57;0.57;;;;;;;;;;5009422;28;21197;-75
2023/03/10 00:08:41;;;;;;;2.92;0.35;;;;;;;;;;5010778;28;20030;-75
2023/03/10 00:11:08;;;;;;;2.25;1.55;;;;;;;;;;5011592;28;20428;-75
2023/03/10 00:13:34;;;;;;;2.33;0.90;;;;;;;;;;5017300;28;20057;-75
2023/03/10 00:16:00;;;;;;;1.25;0.60;;;;;;;;;;5016333;28;20085;-75
2023/03/10 00:18:26;;;;;;;0.40;0.30;;;;;;;;;;5025117;28;20030;-75
2023/03/10 00:20:53;;;;;;;0.88;0.63;;;;;;;;;;5025358;28;20104;-75
2023/03/10 00:23:19;;;;;;;0.95;0.52;;;;;;;;;;5026931;28;20082;-76
2023/03/10 00:25:52;;;;;;;0.40;0.40;;;;;;;;;;5028722;28;20088;-76
2023/03/10 00:28:18;;;;;;;1.20;0.50;;;;;;;;;;5027635;28;20148;-75
2023/03/10 00:30:44;;;;;;;3.30;0.60;;;;;;;;;;5028009;28;20468;-75
2023/03/10 00:33:10;;;;;;;0.75;0.35;;;;;;;;;;5033574;28;20024;-75
2023/03/10 00:35:36;;;;;;;0.45;0.45;;;;;;;;;;5032959;28;20049;-75
2023/03/10 00:38:02;;;;;;;0.28;0.28;;;;;;;;;;5031516;28;20112;-75
2023/03/10 00:40:28;;;;;;;0.90;0.65;;;;;;;;;;5032251;28;20420;-75
2023/03/10 00:42:54;;;;;;;2.08;0.52;;;;;;;;;;5031820;28;20021;-75
2023/03/10 00:45:23;;;;;;;1.10;0.40;;;;;;;;;;5032053;28;20033;-75
2023/03/10 00:47:49;;;;;;;1.33;0.45;;;;;;;;;;5032526;28;20036;-75
2023/03/10 00:50:15;;;;;;;0.20;0.20;;;;;;;;;;5032509;28;20029;-75
2023/03/10 00:52:41;;;;;;;0.45;0.20;;;;;;;;;;5032178;28;20017;-75
2023/03/10 00:55:07;;;;;;;0.40;0.40;;;;;;;;;;5032493;28;20396;-75
2023/03/10 00:57:35;;;;;;;0.20;0.20;;;;;;;;;;5031699;28;20030;-75
2023/03/10 01:00:01;;;;;;;0.60;0.30;;;;;;;;;;5031905;28;20030;-75
2023/03/10 01:02:27;;;;;;;0.20;0.20;;;;;;;;;;5032568;28;20025;-75
2023/03/10 01:04:53;;;;;;;0.50;0.40;;;;;;;;;;5032103;28;20485;-75
2023/03/10 01:07:19;;;;;;;2.35;0.50;;;;;;;;;;5031581;28;20037;-75
2023/03/10 01:09:45;;;;;;;0.15;0.15;;;;;;;;;;5030780;28;20117;-74
2023/03/10 01:12:11;;;;;;;1.55;0.30;;;;;;;;;;5032069;28;20469;-75
2023/03/10 01:14:37;;;;;;;0.57;0.57;;;;;;;;;;5030539;28;20040;-75
2023/03/10 01:17:04;;;;;;;0.80;0.30;;;;;;;;;;5032477;28;20100;-75
2023/03/10 01:19:30;;;;;;;0.20;0.20;;;;;;;;;;5031470;28;20116;-76
2023/03/10 01:21:56;;;;;;;1.27;0.73;;;;;;;;;;5032110;28;20064;-75
2023/03/10 01:24:22;;;;;;;0.45;0.38;;;;;;;;;;5032448;28;20018;-76
2023/03/10 01:26:48;;;;;;;0.45;0.30;;;;;;;;;;5031707;28;20025;-75
2023/03/10 01:29:14;;;;;;;0.52;0.20;;;;;;;;;;5031519;28;20045;-76
2023/03/10 01:31:40;;;;;;;0.40;0.30;;;;;;;;;;5031220;28;20430;-76
2023/03/10 01:34:06;;;;;;;0.85;0.47;;;;;;;;;;5032218;28;20028;-75
2023/03/10 01:36:32;;;;;;;0.40;0.40;;;;;;;;;;5031792;28;20025;-75
2023/03/10 01:38:59;;;;;;;0.30;0.30;;;;;;;;;;5030539;28;20037;-75
2023/03/10 01:41:25;;;;;;;0.40;0.40;;;;;;;;;;5031046;28;20061;-75
2023/03/10 01:43:52;;;;;;;1.95;0.40;;;;;;;;;;5028401;28;20032;-75
2023/03/10 01:46:53;;;;;;;0.40;0.20;;;;;;;;;;5028864;28;20072;-74
2023/03/10 01:49:22;;;;;;;0.85;0.50;;;;;;;;;;4986250;28;20045;-75
2023/03/10 01:51:51;;;;;;;0.50;0.30;;;;;;;;;;5016874;28;20430;-75
2023/03/10 01:54:20;;;;;;;0.95;0.30;;;;;;;;;;5027283;28;20025;-75
2023/03/10 01:56:46;;;;;;;;;;;;;;;;;;5020645;28;20087;-75
2023/03/10 01:59:13;;;;;;;2.28;0.20;;;;;;;;;;5028906;28;20376;-75
2023/03/10 02:01:39;;;;;;;0.20;0.20;;;;;;;;;;5028307;28;20087;-74
2023/03/10 02:04:13;;;;;;;3.97;0.30;;;;;;;;;;5028701;28;20025;-74
2023/03/10 02:06:40;;;;;;;0.57;0.50;;;;;;;;;;5026990;28;20033;-76
2023/03/10 02:09:08;;;;;;;1.65;0.30;;;;;;;;;;5028490;28;20025;-75
2023/03/10 02:11:34;;;;;;;0.43;0.43;;;;;;;;;;5027871;28;20126;-75
2023/03/10 02:14:02;;;;;;;0.60;0.50;;;;;;;;;;5028507;28;20018;-74
2023/03/10 02:16:28;;;;;;;2.65;0.43;;;;;;;;;;5028294;28;20095;-76
2023/03/10 02:18:54;;;;;;;0.20;0.20;;;;;;;;;;5028560;28;20503;-74
2023/03/10 02:21:26;;;;;;;1.27;0.47;;;;;;;;;;5028592;28;20079;-75
2023/03/10 02:23:55;;;;;;;0.85;0.40;;;;;;;;;;5028049;28;20134;-76
2023/03/10 02:26:24;;;;;;;1.52;0.73;;;;;;;;;;5027698;28;20025;-74
2023/03/10 02:28:50;;;;;;;0.60;0.27;;;;;;;;;;5026417;28;20044;-74
2023/03/10 02:31:16;;;;;;;0.32;0.32;;;;;;;;;;5027540;28;20026;-75
2023/03/10 02:33:43;;;;;;;1.05;0.65;;;;;;;;;;5027898;28;20013;-75
2023/03/10 02:36:17;;;;;;;2.65;0.55;;;;;;;;;;5027977;28;20374;-75
2023/03/10 02:38:43;;;;;;;0.90;0.47;;;;;;;;;;5027742;28;20022;-75
2023/03/10 02:41:27;;;;;;;1.10;0.70;;;;;;;;;;5027522;28;20037;-76
2023/03/10 02:43:55;;;;;;;1.20;0.50;;;;;;;;;;5026323;28;20103;-75
2023/03/10 02:46:22;;;;;;;1.15;1.02;;;;;;;;;;5027522;28;20579;-75
2023/03/10 02:48:48;;;;;;;0.40;0.40;;;;;;;;;;5028009;28;20075;-75
2023/03/10 02:51:16;;;;;;;1.13;0.50;;;;;;;;;;5027530;28;20025;-75
2023/03/10 02:53:42;;;;;;;0.30;0.28;;;;;;;;;;5027979;28;20504;-76
2023/03/10 02:56:08;;;;;;;0.43;0.40;;;;;;;;;;5028123;28;20029;-74
2023/03/10 02:58:34;;;;;;;0.63;0.47;;;;;;;;;;5027770;28;20037;-75
2023/03/10 03:01:00;;;;;;;0.28;0.28;;;;;;;;;;5025673;28;20125;-75
2023/03/10 03:03:26;;;;;;;1.88;0.20;;;;;;;;;;5027799;28;20028;-74
2023/03/10 03:05:52;;;;;;;0.98;0.30;;;;;;;;;;5026738;28;20041;-74
2023/03/10 03:08:18;;;;;;;1.73;0.40;;;;;;;;;;5027170;28;20097;-74
2023/03/10 03:10:45;;;;;;;0.93;0.30;;;;;;;;;;5027604;28;20040;-75
2023/03/10 03:13:11;;;;;;;1.23;0.40;;;;;;;;;;5027018;28;20342;-75
2023/03/10 03:15:37;;;;;;;0.43;0.43;;;;;;;;;;5027058;28;20532;-75
2023/03/10 03:18:03;;;;;;;0.10;0.10;;;;;;;;;;5027666;28;20036;-75
2023/03/10 03:20:30;;;;;;;5.68;0.43;;;;;;;;;;5026599;28;20067;-74
2023/03/10 03:22:57;;;;;;;1.23;0.77;;;;;;;;;;5027329;28;20096;-75
2023/03/10 03:25:24;;;;;;;0.75;0.63;;;;;;;;;;5026607;28;20490;-75
2023/03/10 03:27:50;;;;;;;0.20;0.20;;;;;;;;;;5026419;28;20057;-75
2023/03/10 03:30:17;;;;;;;0.50;0.50;;;;;;;;;;5026201;28;20381;-75
2023/03/10 03:32:43;;;;;;;1.38;0.43;;;;;;;;;;5027742;28;20290;-75
2023/03/10 03:35:11;;;;;;;1.02;0.50;;;;;;;;;;5027322;28;20104;-75
2023/03/10 03:37:37;;;;;;;0.63;0.63;;;;;;;;;;5028901;28;20222;-75
2023/03/10 03:40:11;;;;;;;0.10;0.10;;;;;;;;;;5028726;28;20052;-75
2023/03/10 03:42:38;;;;;;;0.35;0.30;;;;;;;;;;5028446;28;20354;-76
2023/03/10 03:45:04;;;;;;;0.28;0.20;;;;;;;;;;5028395;28;20034;-76
2023/03/10 03:47:30;;;;;;;2.20;0.20;;;;;;;;;;5029123;28;20026;-75
2023/03/10 03:49:56;;;;;;;0.17;0.17;;;;;;;;;;5030113;28;20080;-75
2023/03/10 03:52:22;;;;;;;0.80;0.30;;;;;;;;;;5030216;28;20449;-75
2023/03/10 03:54:48;;;;;;;0.20;0.20;;;;;;;;;;5030453;28;20044;-76
2023/03/10 03:57:14;;;;;;;0.47;0.47;;;;;;;;;;5029653;28;20033;-75
2023/03/10 03:59:40;;;;;;;0.20;0.20;;;;;;;;;;5028938;28;20025;-75
2023/03/10 04:02:06;;;;;;;0.10;0.10;;;;;;;;;;5028187;28;20087;-76
2023/03/10 04:04:32;;;;;;;0.73;0.20;;;;;;;;;;5029897;28;20038;-75
2023/03/10 04:06:58;;;;;;;0.30;0.30;;;;;;;;;;5028078;28;20116;-75
2023/03/10 04:09:24;;;;;;;0.75;0.30;;;;;;;;;;5030101;28;20449;-76
2023/03/10 04:11:50;;;;;;;0.28;0.28;;;;;;;;;;5029582;28;20053;-75
2023/03/10 04:14:16;;;;;;;0.10;0.10;;;;;;;;;;5028301;28;20064;-76
2023/03/10 04:16:43;;;;;;;0.40;0.10;;;;;;;;;;5029836;28;20057;-76
2023/03/10 04:19:09;;;;;;;0.10;0.10;;;;;;;;;;5028188;28;20560;-75
2023/03/10 04:21:35;;;;;;;2.17;0.57;;;;;;;;;;5028153;28;20025;-76
2023/03/10 04:24:01;;;;;;;0.17;0.10;;;;;;;;;;5030167;28;20025;-75
2023/03/10 04:26:27;;;;;;;0.20;0.20;;;;;;;;;;5029452;28;20033;-76
2023/03/10 04:28:53;;;;;;;0.20;0.20;;;;;;;;;;5029796;28;20052;-76
2023/03/10 04:31:19;;;;;;;0.10;0.10;;;;;;;;;;5028297;28;20033;-76
2023/03/10 04:33:45;;;;;;;1.00;0.20;;;;;;;;;;5028621;28;20377;-76
2023/03/10 04:36:11;;;;;;;0.20;0.20;;;;;;;;;;5029710;28;20021;-75
2023/03/10 04:38:38;;;;;;;0.47;0.15;;;;;;;;;;5029429;28;20029;-76
2023/03/10 04:41:04;;;;;;;0.10;0.10;;;;;;;;;;5020194;28;20037;-76
2023/03/10 04:43:31;;;;;;;1.75;0.50;;;;;;;;;;5014485;28;20033;-76
2023/03/10 04:45:57;;;;;;;0.20;0.20;;;;;;;;;;5019800;28;20037;-76
2023/03/10 04:48:24;;;;;;;0.10;0.10;;;;;;;;;;5017380;28;20030;-76
2023/03/10 04:50:56;;;;;;;0.65;0.10;;;;;;;;;;5015309;28;20474;-76
2023/03/10 04:53:23;;;;;;;0.63;0.20;;;;;;;;;;5010685;28;20030;-76
2023/03/10 04:55:50;;;;;;;2.05;0.25;;;;;;;;;;5019248;28;20022;-77
2023/03/10 04:58:17;;;;;;;0.38;0.10;;;;;;;;;;5017502;28;20030;-76
2023/03/10 05:00:43;;;;;;;0.20;0.20;;;;;;;;;;5016318;28;20026;-76
2023/03/10 05:03:09;;;;;;;0.05;0.05;;;;;;;;;;5016455;28;20030;-76
2023/03/10 05:05:36;;;;;;;0.20;0.20;;;;;;;;;;5018884;28;20038;-76
2023/03/10 05:08:02;;;;;;;0.13;0.10;;;;;;;;;;5019015;28;20022;-76
2023/03/10 05:10:28;;;;;;;0.57;0.20;;;;;;;;;;5012720;28;20037;-76
2023/03/10 05:12:54;;;;;;;0.20;0.20;;;;;;;;;;5014770;28;20022;-76
2023/03/10 05:15:20;;;;;;;0.30;0.30;;;;;;;;;;5017059;28;20121;-76
2023/03/10 05:17:46;;;;;;;0.20;0.20;;;;;;;;;;5017570;28;20025;-76
2023/03/10 05:20:13;;;;;;;0.10;0.10;;;;;;;;;;5019228;28;20030;-76
2023/03/10 05:22:39;;;;;;;0.10;0.10;;;;;;;;;;5026132;28;20484;-76
2023/03/10 05:25:06;;;;;;;0.10;0.10;;;;;;;;;;5021650;28;20060;-76
2023/03/10 05:27:32;;;;;;;0.43;0.15;;;;;;;;;;5024056;28;20128;-76
2023/03/10 05:29:58;;;;;;;0.20;0.10;;;;;;;;;;5017465;28;20036;-76
2023/03/10 05:32:24;;;;;;;0.20;0.20;;;;;;;;;;5031046;28;20248;-76
2023/03/10 05:34:53;;;;;;;0.17;0.17;;;;;;;;;;5032480;28;20017;-76
2023/03/10 05:37:19;;;;;;;0.45;0.30;;;;;;;;;;5033163;28;20108;-76
2023/03/10 05:39:45;;;;;;;4.20;1.00;;;;;;;;;;5033012;28;20391;-76
2023/03/10 05:42:11;;;;;;;0.28;0.10;;;;;;;;;;5033309;28;20021;-76
2023/03/10 05:44:38;;;;;;;0.57;0.57;;;;;;;;;;5033201;28;20144;-76
2023/03/10 05:47:04;;;;;;;2.35;0.30;;;;;;;;;;5028753;28;20025;-76
2023/03/10 05:49:31;;;;;;;6.07;0.65;;;;;;;;;;5041644;28;20017;-76
2023/03/10 05:51:57;;;;;;;0.00;0.00;;;;;;;;;;5031863;28;20029;-76
2023/03/10 05:54:23;;;;;;;0.15;0.15;;;;;;;;;;5032022;28;20036;-76
2023/03/10 05:56:49;;;;;;;0.20;0.20;;;;;;;;;;5031188;28;20029;-76
2023/03/10 05:59:15;;;;;;;1.50;0.70;;;;;;;;;;5033557;28;20151;-76
2023/03/10 06:01:42;;;;;;;0.93;0.40;;;;;;;;;;5030802;28;20259;-76
2023/03/10 06:04:08;;;;;;;0.50;0.50;;;;;;;;;;5029596;28;20033;-76
2023/03/10 06:06:34;;;;;;;1.23;0.10;;;;;;;;;;5032097;28;20300;-76
2023/03/10 06:09:00;;;;;;;0.10;0.10;;;;;;;;;;5032154;28;20029;-76
2023/03/10 06:11:27;;;;;;;0.13;0.10;;;;;;;;;;5029914;28;20025;-75
2023/03/10 06:13:53;;;;;;;0.20;0.20;;;;;;;;;;5031705;28;20023;-75
2023/03/10 06:16:19;;;;;;;0.03;0.03;;;;;;;;;;5037040;28;20022;-76
2023/03/10 06:18:45;;;;;;;0.20;0.20;;;;;;;;;;5036516;28;20037;-77
2023/03/10 06:21:14;;;;;;;0.10;0.10;;;;;;;;;;5042871;28;20388;-77
2023/03/10 06:23:40;;;;;;;0.17;0.17;;;;;;;;;;5042235;28;20095;-77
2023/03/10 06:26:07;;;;;;;0.10;0.10;;;;;;;;;;5042063;28;20030;-77
2023/03/10 06:28:35;;;;;;;0.00;0.00;;;;;;;;;;5041996;28;20065;-76
2023/03/10 06:31:02;;;;;;;0.10;0.10;;;;;;;;;;5041722;28;20036;-78
2023/03/10 06:33:28;;;;;;;0.05;0.05;;;;;;;;;;5041710;28;20202;-75
2023/03/10 06:35:54;;;;;;;0.13;0.13;;;;;;;;;;5041251;28;20025;-75
2023/03/10 06:38:21;;;;;;;0.10;0.10;;;;;;;;;;5037332;28;20240;-77
2023/03/10 06:40:47;;;;;;;0.10;0.10;;;;;;;;;;5016098;28;20030;-76
2023/03/10 06:43:13;;;;;;;0.60;0.13;;;;;;;;;;5016407;28;20266;-76
2023/03/10 06:45:43;;;;;;;0.10;0.10;;;;;;;;;;5021576;28;20034;-76
2023/03/10 06:48:09;;;;;;;0.10;0.10;;;;;;;;;;5017114;28;20390;-77
2023/03/10 06:50:35;;;;;;;0.10;0.10;;;;;;;;;;5018219;28;20051;-77
2023/03/10 06:53:01;;;;;;;0.13;0.13;;;;;;;;;;5019504;28;20482;-77
2023/03/10 06:55:27;;;;;;;0.00;0.00;;;;;;;;;;5020298;28;20036;-76
2023/03/10 06:57:53;;;;;;;0.10;0.10;;;;;;;;;;5018618;28;20076;-76
2023/03/10 07:00:19;;;;;;;0.10;0.10;;;;;;;;;;5020829;28;20025;-77
2023/03/10 07:02:45;;;;;;;1.15;0.20;;;;;;;;;;5018571;28;20049;-77
2023/03/10 07:05:12;;;;;;;0.03;0.03;;;;;;;;;;5014650;28;20081;-77
2023/03/10 07:07:38;;;;;;;0.10;0.10;;;;;;;;;;5012948;28;20024;-77
2023/03/10 07:10:05;;;;;;;0.10;0.10;;;;;;;;;;5046658;28;20025;-77
2023/03/10 07:12:31;;;;;;;1.35;0.25;;;;;;;;;;5048591;28;20032;-76
2023/03/10 07:14:58;;;;;;;1.08;0.10;;;;;;;;;;5026678;28;20018;-76
2023/03/10 07:17:24;;;;;;;2.40;0.82;;;;;;;;;;5027302;28;20128;-77
2023/03/10 07:19:50;;;;;;;0.28;0.20;;;;;;;;;;5027781;28;20025;-77
2023/03/10 07:22:16;;;;;;;0.65;0.20;;;;;;;;;;5027224;28;20029;-75
2023/03/10 07:24:42;;;;;;;3.78;0.30;;;;;;;;;;5027137;28;20143;-76
2023/03/10 07:27:08;;;;;;;2.75;0.85;;;;;;;;;;5025785;28;20095;-76
2023/03/10 07:29:35;;;;;;;0.85;0.60;;;;;;;;;;5026130;28;20076;-76
2023/03/10 07:32:01;;;;;;;1.20;0.32;;;;;;;;;;5027038;28;20032;-76
2023/03/10 07:34:27;;;;;;;0.30;0.20;;;;;;;;;;5028049;28;20034;-76
2023/03/10 07:36:53;;;;;;;0.38;0.38;;;;;;;;;;5026526;28;20064;-76
2023/03/10 07:39:19;;;;;;;1.27;0.45;;;;;;;;;;5028661;28;20036;-76
2023/03/10 07:41:45;;;;;;;2.42;0.40;;;;;;;;;;5026274;28;20024;-76
2023/03/10 07:44:11;;;;;;;0.68;0.68;;;;;;;;;;5027918;28;20029;-76
2023/03/10 07:46:37;;;;;;;1.17;0.50;;;;;;;;;;5028679;28;20041;-77
2023/03/10 07:49:03;;;;;;;5.82;1.83;;;;;;;;;;5028567;28;20428;-76
2023/03/10 07:51:30;;;;;;;4.70;0.98;;;;;;;;;;5026315;28;20410;-77
2023/03/10 07:53:56;;;;;;;4.18;0.75;;;;;;;;;;5027569;28;20026;-77
2023/03/10 07:56:22;;;;;;;3.20;1.40;;;;;;;;;;5028292;28;20033;-76
2023/03/10 07:58:48;;;;;;;4.55;1.52;;;;;;;;;;5028328;28;20029;-76
2023/03/10 08:01:16;;;;;;;1.50;0.63;;;;;;;;;;5027548;28;20470;-76
2023/03/10 08:03:42;;;;;;;5.90;0.73;;;;;;;;;;5026382;28;20091;-77
2023/03/10 08:06:08;;;;;;;8.82;1.70;;;;;;;;;;5026519;28;20039;-76
2023/03/10 08:08:34;;;;;;;6.22;1.30;;;;;;;;;;5038831;28;20103;-76
2023/03/10 08:11:02;;;;;;;4.35;2.22;;;;;;;;;;5045693;28;20175;-76
2023/03/10 08:13:28;;;;;;;7.22;1.42;;;;;;;;;;5045529;28;20527;-76
2023/03/10 08:15:54;;;;;;;2.38;1.33;;;;;;;;;;5046091;28;20167;-77
2023/03/10 08:18:22;;;;;;;4.57;1.33;;;;;;;;;;5046521;28;20497;-76
2023/03/10 08:20:48;;;;;;;3.50;1.30;;;;;;;;;;5045924;28;20025;-77
2023/03/10 08:23:14;;;;;;;4.05;1.88;;;;;;;;;;5047355;28;20362;-78
2023/03/10 08:25:40;;;;;;;4.18;1.35;;;;;;;;;;5046681;28;20128;-80
2023/03/10 08:28:06;;;;;;;10.77;1.98;;;;;;;;;;5047336;28;20049;-77
2023/03/10 08:30:32;;;;;;;7.95;1.52;;;;;;;;;;5047871;28;20539;-79
2023/03/10 08:32:58;;;;;;;3.28;0.68;;;;;;;;;;5045223;28;20125;-75
2023/03/10 08:35:25;;;;;;;10.57;1.33;;;;;;;;;;5045700;28;20032;-75
2023/03/10 08:37:51;;;;;;;5.20;1.33;;;;;;;;;;5046132;28;20029;-74
2023/03/10 08:40:17;;;;;;;1.98;0.80;;;;;;;;;;5046019;28;20025;-75
2023/03/10 08:42:43;;;;;;;4.70;0.77;;;;;;;;;;5045534;28;20546;-76
2023/03/10 08:45:11;;;;;;;8.05;1.02;;;;;;;;;;5045467;28;20033;-75
2023/03/10 08:47:37;;;;;;;2.88;0.85;;;;;;;;;;5037381;28;20120;-76
2023/03/10 08:50:04;;;;;;;3.17;0.57;;;;;;;;;;5022784;28;20572;-75
2023/03/10 08:52:31;;;;;;;1.35;0.50;;;;;;;;;;5028633;28;20065;-75
2023/03/10 08:54:57;;;;;;;2.45;0.60;;;;;;;;;;5028179;28;20033;-75
2023/03/10 08:57:23;;;;;;;2.10;0.90;;;;;;;;;;5029800;28;20029;-75
2023/03/10 08:59:50;;;;;;;5.75;1.40;;;;;;;;;;5027781;28;20314;-75
2023/03/10 09:02:16;;;;;;;1.85;0.88;;;;;;;;;;5033442;28;20036;-74
2023/03/10 09:04:43;;;;;;;5.60;1.00;;;;;;;;;;5050630;28;20093;-76
2023/03/10 09:07:09;;;;;;;4.70;1.73;;;;;;;;;;5050114;28;20033;-76
2023/03/10 09:09:35;;;;;;;4.05;0.90;;;;;;;;;;5050866;28;20025;-75
2023/03/10 09:12:01;;;;;;;2.80;0.50;;;;;;;;;;5048994;28;20029;-75
2023/03/10 09:14:27;;;;;;;3.80;0.73;;;;;;;;;;5050712;28;20033;-76
2023/03/10 09:16:53;;;;;;;9.13;2.05;;;;;;;;;;5049776;28;20029;-76
2023/03/10 09:19:19;;;;;;;1.38;0.52;;;;;;;;;;5049514;28;20044;-76
2023/03/10 09:21:46;;;;;;;2.25;0.60;;;;;;;;;;5049209;28;20031;-77
2023/03/10 09:24:12;;;;;;;2.38;0.85;;;;;;;;;;5047605;28;20649;-77
2023/03/10 09:26:38;;;;;;;0.60;0.30;;;;;;;;;;5048828;28;20033;-75
2023/03/10 09:29:04;;;;;;;1.55;0.50;;;;;;;;;;5047004;28;20561;-74
2023/03/10 09:31:32;;;;;;;3.25;1.40;;;;;;;;;;5048831;28;20480;-76
2023/03/10 09:33:58;;;;;;;0.20;0.20;;;;;;;;;;5048336;28;20080;-75
2023/03/10 09:36:24;;;;;;;4.15;0.73;;;;;;;;;;5049401;28;20029;-76
2023/03/10 09:38:50;;;;;;;2.28;0.52;;;;;;;;;;5048434;28;20029;-75
2023/03/10 09:41:39;;;;;;;4.40;0.63;;;;;;;;;;5048574;28;20036;-75
2023/03/10 09:44:23;;;;;;;4.07;0.40;;;;;;;;;;5040420;28;20041;-77
2023/03/10 09:46:52;;;;;;;1.67;0.50;;;;;;;;;;5047652;28;20047;-76
2023/03/10 09:49:21;;;;;;;0.43;0.40;;;;;;;;;;5047097;28;20312;-75
2023/03/10 09:51:48;;;;;;;3.13;0.98;;;;;;;;;;5032656;28;20034;-77
2023/03/10 09:54:23;;;;;;;3.97;0.40;;;;;;;;;;5047002;28;20032;-77
2023/03/10 09:56:49;;;;;;;1.55;0.45;;;;;;;;;;5047024;28;20163;-75
2023/03/10 09:59:31;;;;;;;1.90;0.38;;;;;;;;;;5046574;28;20062;-75
2023/03/10 10:01:59;;;;;;;0.45;0.20;;;;;;;;;;5042493;28;20026;-75
2023/03/10 10:04:28;;;;;;;0.98;0.30;;;;;;;;;;5027258;28;20037;-74
2023/03/10 10:06:56;;;;;;;0.10;0.10;;;;;;;;;;5028213;28;20033;-75
2023/03/10 10:09:42;;;;;;;0.88;0.13;;;;;;;;;;5029129;28;20244;-74
2023/03/10 10:12:22;;;;;;;0.10;0.10;;;;;;;;;;5027934;28;20492;-74
2023/03/10 10:14:49;;;;;;;0.00;0.00;;;;;;;;;;5026107;28;20665;-75
2023/03/10 10:17:21;;;;;;;0.35;0.10;;;;;;;;;;5032169;28;20432;-75
2023/03/10 10:19:47;;;;;;;0.88;0.20;;;;;;;;;;5025959;28;20101;-74
2023/03/10 10:22:25;;;;;;;1.25;0.10;;;;;;;;;;5032616;28;20026;-75
2023/03/10 10:24:59;;;;;;;0.17;0.17;;;;;;;;;;5031378;28;20029;-75
2023/03/10 10:27:25;;;;;;;0.88;0.60;;;;;;;;;;5033219;28;20556;-75
2023/03/10 10:29:52;;;;;;;0.10;0.10;;;;;;;;;;5052156;28;20033;-75
2023/03/10 10:32:18;;;;;;;0.55;0.10;;;;;;;;;;5051757;28;20027;-74
2023/03/10 10:34:45;;;;;;;0.43;0.10;;;;;;;;;;5051404;28;20104;-74
2023/03/10 10:37:26;;;;;;;0.08;0.08;;;;;;;;;;5051277;28;20033;-75
2023/03/10 10:39:54;;;;;;;0.00;0.00;;;;;;;;;;5049646;28;20021;-75
2023/03/10 10:42:24;;;;;;;0.00;0.00;;;;;;;;;;5050795;28;20053;-75
2023/03/10 10:44:55;;;;;;;0.10;0.10;;;;;;;;;;5011174;28;20026;-75
2023/03/10 10:47:39;;;;;;;0.00;0.00;;;;;;;;;;5011337;28;20026;-75
2023/03/10 10:50:28;;;;;;;0.00;0.00;;;;;;;;;;5011262;28;20088;-75
2023/03/10 10:53:13;;;;;;;4.88;0.65;;;;;;;;;;5010438;28;20092;-75
2023/03/10 10:55:40;;;;;;;0.13;0.10;;;;;;;;;;5029807;28;20112;-74
2023/03/10 10:58:22;;;;;;;0.47;0.20;;;;;;;;;;5031424;28;20013;-75
2023/03/10 11:00:54;;;;;;;0.03;0.00;;;;;;;;;;5029631;28;20018;-75
2023/03/10 11:03:32;;;;;;;0.00;0.00;;;;;;;;;;5029814;28;20021;-75
2023/03/10 11:05:59;;;;;;;0.70;0.10;;;;;;;;;;5030766;28;20029;-75
2023/03/10 11:08:31;;;;;;;0.00;0.00;;;;;;;;;;5025384;28;20079;-75
2023/03/10 11:11:07;;;;;;;0.10;0.10;;;;;;;;;;5042903;28;20134;-74
2023/03/10 11:13:48;;;;;;;0.10;0.10;;;;;;;;;;5041189;28;20219;-74
2023/03/10 11:16:33;;;;;;;0.00;0.00;;;;;;;;;;5008659;28;20498;-74
2023/03/10 11:19:07;;;;;;;0.10;0.10;;;;;;;;;;5017614;28;20040;-75
2023/03/10 11:21:36;;;;;;;0.10;0.10;;;;;;;;;;5026440;28;20156;-75
2023/03/10 11:24:07;;;;;;;0.10;0.10;;;;;;;;;;5027971;28;20366;-74
2023/03/10 11:26:39;;;;;;;0.10;0.10;;;;;;;;;;5026823;28;20095;-74
2023/03/10 11:29:35;;;;;;;0.10;0.10;;;;;;;;;;5037156;28;20049;-75
2023/03/10 11:32:06;;;;;;;0.13;0.13;;;;;;;;;;5028273;28;20037;-75
2023/03/10 11:34:35;;;;;;;0.10;0.10;;;;;;;;;;5046419;28;20439;-75
2023/03/10 11:37:21;;;;;;;0.30;0.08;;;;;;;;;;5046609;28;20017;-75
2023/03/10 11:39:54;;;;;;;0.20;0.10;;;;;;;;;;5045940;28;20048;-75
2023/03/10 11:42:26;;;;;;;0.08;0.00;;;;;;;;;;5046234;28;20085;-74
2023/03/10 11:45:05;;;;;;;0.17;0.17;;;;;;;;;;5045796;28;22302;-74
2023/03/10 11:47:43;;;;;;;0.08;0.08;;;;;;;;;;5046806;28;20021;-75
2023/03/10 11:50:44;;;;;;;0.43;0.00;;;;;;;;;;5046630;28;20029;-76
2023/03/10 11:53:13;;;;;;;0.00;0.00;;;;;;;;;;4967993;28;20038;-74
2023/03/10 11:55:40;;;;;;;0.10;0.10;;;;;;;;;;5035114;28;20083;-75
2023/03/10 11:58:18;;;;;;;0.32;0.32;;;;;;;;;;5047017;28;20031;-75
2023/03/10 12:00:45;;;;;;;0.10;0.10;;;;;;;;;;5045274;28;20033;-75
2023/03/10 12:03:20;;;;;;;0.05;0.05;;;;;;;;;;5039527;28;20021;-75
2023/03/10 12:05:51;;;;;;;0.10;0.10;;;;;;;;;;5026077;28;20056;-75
2023/03/10 12:08:19;;;;;;;0.00;0.00;;;;;;;;;;5027283;28;20385;-75
2023/03/10 12:10:45;;;;;;;0.32;0.20;;;;;;;;;;5028212;28;20056;-75
2023/03/10 12:13:22;;;;;;;0.10;0.10;;;;;;;;;;5025767;28;20358;-74
2023/03/10 12:15:49;;;;;;;0.10;0.10;;;;;;;;;;5025124;28;20030;-75
2023/03/10 12:18:15;;;;;;;0.05;0.05;;;;;;;;;;5027239;28;20113;-74
2023/03/10 12:20:41;;;;;;;0.20;0.20;;;;;;;;;;5026760;28;20578;-74
2023/03/10 12:23:10;;;;;;;0.08;0.08;;;;;;;;;;5025923;28;20116;-74
2023/03/10 12:25:37;;;;;;;0.63;0.63;;;;;;;;;;5024800;28;20174;-74
2023/03/10 12:28:12;;;;;;;0.10;0.10;;;;;;;;;;5026557;28;20421;-75
2023/03/10 12:30:49;;;;;;;0.20;0.10;;;;;;;;;;5026700;28;20485;-75
2023/03/10 12:33:36;;;;;;;0.22;0.20;;;;;;;;;;5026482;28;20603;-75
2023/03/10 12:36:08;;;;;;;0.20;0.20;;;;;;;;;;5026606;28;20140;-75
2023/03/10 12:38:53;;;;;;;0.20;0.20;;;;;;;;;;5027189;28;20057;-74
2023/03/10 12:41:25;;;;;;;2.72;0.10;;;;;;;;;;5026658;28;20029;-74
2023/03/10 12:43:51;;;;;;;0.35;0.35;;;;;;;;;;5026618;28;20183;-74
2023/03/10 12:46:28;;;;;;;0.10;0.10;;;;;;;;;;5023912;28;20580;-74
2023/03/10 12:49:15;;;;;;;0.10;0.10;;;;;;;;;;5026380;28;20082;-74
2023/03/10 12:51:42;;;;;;;0.13;0.08;;;;;;;;;;4985237;28;20155;-74
2023/03/10 12:54:14;;;;;;;0.20;0.20;;;;;;;;;;5025633;28;20477;-74
2023/03/10 12:56:50;;;;;;;0.10;0.10;;;;;;;;;;5025545;28;20441;-74
2023/03/10 12:59:18;;;;;;;2.20;0.10;;;;;;;;;;5026160;28;20017;-74
2023/03/10 13:01:45;;;;;;;0.10;0.10;;;;;;;;;;5027945;28;20026;-74
2023/03/10 13:04:15;;;;;;;0.10;0.10;;;;;;;;;;5033142;28;20024;-74
2023/03/10 13:06:43;;;;;;;0.20;0.20;;;;;;;;;;5045509;28;20094;-74
2023/03/10 13:09:09;;;;;;;0.52;0.52;;;;;;;;;;5046745;28;20032;-74
2023/03/10 13:11:38;;;;;;;0.30;0.13;;;;;;;;;;5044766;28;20039;-74
2023/03/10 13:14:13;;;;;;;0.40;0.40;;;;;;;;;;5044816;28;20020;-74
2023/03/10 13:16:40;;;;;;;0.65;0.10;;;;;;;;;;5045646;28;20098;-74
2023/03/10 13:19:06;;;;;;;0.20;0.20;;;;;;;;;;5045678;28;20566;-74
2023/03/10 13:21:36;;;;;;;1.52;0.20;;;;;;;;;;5045680;28;20071;-75
2023/03/10 13:24:22;;;;;;;0.10;0.10;;;;;;;;;;5044694;28;20056;-75
2023/03/10 13:26:48;;;;;;;0.93;0.20;;;;;;;;;;5045196;28;20037;-74
2023/03/10 13:29:17;;;;;;;0.17;0.17;;;;;;;;;;5043468;28;20041;-74
2023/03/10 13:31:51;;;;;;;0.30;0.28;;;;;;;;;;5045352;28;20036;-75
2023/03/10 13:34:19;;;;;;;0.57;0.13;;;;;;;;;;5045196;28;20021;-74
2023/03/10 13:36:45;;;;;;;0.30;0.30;;;;;;;;;;5045316;28;20124;-74
2023/03/10 13:39:21;;;;;;;1.65;0.40;;;;;;;;;;5046760;28;20108;-74
2023/03/10 13:41:51;;;;;;;0.30;0.30;;;;;;;;;;5048633;28;20036;-75
2023/03/10 13:44:17;;;;;;;1.38;0.73;;;;;;;;;;5048528;28;20017;-74
2023/03/10 13:47:03;;;;;;;2.58;1.27;;;;;;;;;;5049661;28;20041;-75
2023/03/10 13:49:36;;;;;;;2.10;1.05;;;;;;;;;;5048462;28;20024;-75
2023/03/10 13:52:06;;;;;;;3.10;0.60;;;;;;;;;;5033893;28;20033;-75
2023/03/10 13:54:33;;;;;;;5.50;1.40;;;;;;;;;;5036635;28;20087;-75
2023/03/10 13:57:18;;;;;;;3.17;0.70;;;;;;;;;;5048788;28;20102;-75
2023/03/10 13:59:45;;;;;;;5.32;1.02;;;;;;;;;;5047305;28;20466;-76
2023/03/10 14:02:24;;;;;;;2.92;1.25;;;;;;;;;;5048697;28;20480;-75
2023/03/10 14:04:52;;;;;;;4.95;0.73;;;;;;;;;;5018991;28;20535;-75
2023/03/10 14:07:22;;;;;;;1.35;0.60;;;;;;;;;;5028699;28;20056;-76
2023/03/10 14:10:09;;;;;;;5.05;0.68;;;;;;;;;;5028376;28;20025;-76
2023/03/10 14:12:35;;;;;;;6.70;0.90;;;;;;;;;;5028662;28;20056;-75
2023/03/10 14:15:16;;;;;;;6.75;1.58;;;;;;;;;;5028081;28;20418;-74
2023/03/10 14:17:43;;;;;;;2.95;1.48;;;;;;;;;;5028461;28;20034;-75
2023/03/10 14:20:10;;;;;;;2.97;1.10;;;;;;;;;;5027149;28;20256;-74
2023/03/10 14:22:42;;;;;;;1.55;1.45;;;;;;;;;;5026968;28;20103;-75
2023/03/10 14:25:08;;;;;;;3.85;1.15;;;;;;;;;;5028545;28;20033;-75
2023/03/10 14:27:35;;;;;;;5.35;1.55;;;;;;;;;;5027943;28;20037;-75
2023/03/10 14:30:03;;;;;;;2.45;0.77;;;;;;;;;;5028795;28;20485;-75
2023/03/10 14:32:29;;;;;;;3.45;1.25;;;;;;;;;;5028607;28;20029;-76
2023/03/10 14:34:55;;;;;;;2.65;0.90;;;;;;;;;;5028519;28;20060;-75
2023/03/10 14:37:22;;;;;;;10.32;1.92;;;;;;;;;;5026841;28;20021;-77
2023/03/10 14:39:48;;;;;;;6.28;0.80;;;;;;;;;;5028332;28;20029;-75
2023/03/10 14:42:19;;;;;;;5.72;0.85;;;;;;;;;;5029156;28;20033;-74
2023/03/10 14:44:46;;;;;;;5.15;1.45;;;;;;;;;;5027334;28;20033;-74
2023/03/10 14:47:11;;;;;;;6.07;1.90;;;;;;;;;;5027079;28;20037;-75
2023/03/10 14:49:38;;;;;;;6.30;1.33;;;;;;;;;;5028191;28;20159;-75
2023/03/10 14:52:05;;;;;;;5.75;1.90;;;;;;;;;;5027712;28;20509;-74